createdAt,value
2018-09-27T00:02:00.467Z,0.40
2018-09-27T00:04:30.080Z,0.30
2018-09-27T00:06:59.470Z,0.30
2018-09-27T00:09:29.197Z,0.20
2018-09-27T00:11:59.102Z,0.30
2018-09-27T00:14:28.698Z,0.70
2018-09-27T00:16:58.099Z,0.70
2018-09-27T00:19:27.886Z,0.30
2018-09-27T00:21:57.468Z,0.33
2018-09-27T00:24:26.843Z,0.30
2018-09-27T00:26:56.568Z,0.30
2018-09-27T00:29:26.941Z,0.40
2018-09-27T00:31:56.551Z,0.30
2018-09-27T00:34:26.279Z,0.30
2018-09-27T00:36:56.027Z,0.30
2018-09-27T00:39:25.714Z,0.30
2018-09-27T00:41:55.623Z,0.30
2018-09-27T00:44:25.603Z,0.43
2018-09-27T00:46:55.205Z,0.20
2018-09-27T00:49:24.631Z,0.57
2018-09-27T00:51:54.390Z,0.40
2018-09-27T00:54:24.386Z,0.30
2018-09-27T00:56:54.067Z,0.20
2018-09-27T00:59:23.547Z,0.30
2018-09-27T01:01:53.333Z,0.40
2018-09-27T01:04:23.038Z,0.27
2018-09-27T01:06:52.500Z,0.30
2018-09-27T01:09:22.209Z,0.27
2018-09-27T01:11:52.187Z,0.30
2018-09-27T01:14:21.774Z,0.30
2018-09-27T01:16:51.238Z,0.30
2018-09-27T01:19:21.020Z,0.30
2018-09-27T01:21:50.686Z,0.20
2018-09-27T01:24:20.458Z,0.20
2018-09-27T01:26:50.453Z,0.30
2018-09-27T01:29:20.498Z,0.50
2018-09-27T01:31:50.117Z,0.20
2018-09-27T01:34:19.529Z,0.20
2018-09-27T01:36:49.293Z,0.30
2018-09-27T01:39:19.317Z,0.30
2018-09-27T01:41:49.300Z,0.20
2018-09-27T01:44:18.931Z,0.30
2018-09-27T01:46:50.244Z,0.20
2018-09-27T01:49:20.028Z,0.33
2018-09-27T01:51:49.990Z,0.30
2018-09-27T01:54:19.608Z,0.30
2018-09-27T01:56:49.302Z,0.30
2018-09-27T01:59:18.937Z,0.20
2018-09-27T02:01:48.310Z,0.27
2018-09-27T02:04:18.062Z,0.30
2018-09-27T02:06:48.001Z,0.30
2018-09-27T02:09:17.960Z,0.30
2018-09-27T02:11:47.579Z,0.30
2018-09-27T02:14:17.489Z,0.20
2018-09-27T02:16:47.511Z,0.30
2018-09-27T02:19:17.626Z,0.30
2018-09-27T02:21:47.664Z,0.30
2018-09-27T02:24:17.291Z,0.40
2018-09-27T02:26:47.051Z,0.47
2018-09-27T02:29:16.901Z,0.30
2018-09-27T02:31:47.072Z,0.30
2018-09-27T02:34:16.667Z,0.20
2018-09-27T02:36:46.429Z,0.33
2018-09-27T02:39:16.074Z,0.30
2018-09-27T02:41:45.880Z,0.30
2018-09-27T02:44:15.302Z,0.27
2018-09-27T02:46:45.010Z,0.20
2018-09-27T02:49:14.647Z,0.20
2018-09-27T02:51:44.035Z,0.30
2018-09-27T02:54:13.442Z,0.30
2018-09-27T02:56:43.146Z,0.30
2018-09-27T02:59:12.884Z,0.30
2018-09-27T03:01:42.316Z,0.30
2018-09-27T03:04:21.432Z,0.40
2018-09-27T03:06:50.850Z,0.33
2018-09-27T03:09:20.603Z,0.30
2018-09-27T03:11:50.523Z,0.80
2018-09-27T03:14:20.502Z,0.30
2018-09-27T03:16:50.461Z,0.20
2018-09-27T03:19:20.402Z,0.20
2018-09-27T03:21:50.361Z,0.20
2018-09-27T03:24:20.025Z,0.30
2018-09-27T03:26:49.507Z,0.20
2018-09-27T03:29:19.342Z,0.20
2018-09-27T03:31:48.982Z,0.40
2018-09-27T03:34:18.399Z,0.40
2018-09-27T03:36:48.092Z,0.30
2018-09-27T03:39:17.714Z,0.30
2018-09-27T03:41:47.108Z,0.20
2018-09-27T03:44:16.834Z,0.30
2018-09-27T03:46:46.773Z,0.30
2018-09-27T03:49:16.718Z,0.30
2018-09-27T03:51:46.669Z,0.30
2018-09-27T03:54:16.283Z,0.57
2018-09-27T03:56:46.837Z,0.50
2018-09-27T03:59:16.476Z,0.40
2018-09-27T04:01:45.850Z,0.67
2018-09-27T04:04:15.602Z,0.40
2018-09-27T04:06:45.207Z,0.20
2018-09-27T04:09:14.610Z,0.40
2018-09-27T04:11:43.996Z,0.20
2018-09-27T04:14:13.405Z,0.30
2018-09-27T04:16:42.803Z,0.50
2018-09-27T04:19:12.393Z,0.53
2018-09-27T04:21:42.194Z,0.30
2018-09-27T04:24:11.879Z,0.20
2018-09-27T04:26:41.609Z,0.30
2018-09-27T04:29:11.645Z,0.20
2018-09-27T04:31:41.267Z,0.30
2018-09-27T04:34:10.758Z,0.40
2018-09-27T04:36:40.568Z,0.90
2018-09-27T04:39:11.813Z,0.37
2018-09-27T04:41:41.400Z,0.30
2018-09-27T04:44:10.829Z,0.50
2018-09-27T04:46:40.257Z,0.30
2018-09-27T04:49:09.713Z,0.50
2018-09-27T04:51:39.181Z,0.30
2018-09-27T04:54:08.599Z,0.30
2018-09-27T04:56:38.363Z,0.30
2018-09-27T04:59:08.054Z,0.40
2018-09-27T05:01:37.509Z,0.20
2018-09-27T05:04:07.048Z,0.30
2018-09-27T05:06:36.451Z,0.20
2018-09-27T05:09:06.421Z,0.30
2018-09-27T05:11:35.839Z,0.20
2018-09-27T05:14:05.610Z,0.20
2018-09-27T05:16:35.702Z,0.27
2018-09-27T05:19:05.766Z,0.30
2018-09-27T05:21:35.472Z,0.30
2018-09-27T05:24:04.900Z,0.30
2018-09-27T05:26:34.786Z,0.23
2018-09-27T05:29:04.457Z,0.20
2018-09-27T05:31:33.881Z,0.30
2018-09-27T05:34:03.257Z,0.30
2018-09-27T05:36:32.665Z,1.60
2018-09-27T05:39:02.222Z,0.30
2018-09-27T05:41:32.031Z,0.30
2018-09-27T05:44:01.883Z,0.20
2018-09-27T05:46:31.353Z,0.20
2018-09-27T05:49:00.803Z,0.30
2018-09-27T05:51:30.644Z,0.30
2018-09-27T05:54:00.347Z,0.20
2018-09-27T05:56:29.846Z,0.30
2018-09-27T05:58:59.381Z,0.30
2018-09-27T06:01:29.580Z,0.30
2018-09-27T06:03:59.632Z,0.30
2018-09-27T06:06:29.775Z,0.30
2018-09-27T06:08:59.666Z,0.30
2018-09-27T06:11:29.522Z,0.70
2018-09-27T06:13:59.552Z,0.20
2018-09-27T06:16:29.646Z,0.20
2018-09-27T06:18:59.710Z,0.20
2018-09-27T06:21:29.669Z,0.60
2018-09-27T06:23:59.101Z,0.30
2018-09-27T06:26:29.393Z,0.30
2018-09-27T06:28:59.522Z,0.60
2018-09-27T06:31:29.636Z,0.20
2018-09-27T06:33:59.350Z,0.50
2018-09-27T06:36:29.317Z,0.30
2018-09-27T06:38:59.041Z,0.20
2018-09-27T06:41:28.593Z,0.40
2018-09-27T06:43:58.093Z,0.33
2018-09-27T06:46:28.908Z,0.30
2018-09-27T06:48:58.362Z,0.30
2018-09-27T06:51:27.923Z,0.20
2018-09-27T06:53:58.035Z,0.30
2018-09-27T06:56:28.404Z,0.23
2018-09-27T06:58:58.419Z,0.40
2018-09-27T07:01:28.500Z,0.30
2018-09-27T07:03:58.291Z,0.33
2018-09-27T07:06:28.169Z,0.20
2018-09-27T07:08:57.940Z,0.30
2018-09-27T07:11:27.517Z,0.30
2018-09-27T07:13:57.000Z,0.30
2018-09-27T07:16:28.719Z,0.47
2018-09-27T07:18:58.880Z,0.30
2018-09-27T07:21:28.933Z,0.33
2018-09-27T07:23:58.587Z,1.13
2018-09-27T07:26:28.448Z,0.30
2018-09-27T07:28:58.435Z,0.30
2018-09-27T07:31:28.447Z,0.73
2018-09-27T07:33:58.400Z,0.80
2018-09-27T07:36:28.474Z,0.30
2018-09-27T07:38:58.135Z,0.30
2018-09-27T07:41:27.565Z,0.30
2018-09-27T07:43:57.027Z,1.23
2018-09-27T07:46:26.801Z,0.50
2018-09-27T07:48:56.824Z,0.30
2018-09-27T07:51:26.455Z,0.40
2018-09-27T07:53:55.958Z,0.50
2018-09-27T07:56:25.843Z,0.30
2018-09-27T07:58:55.485Z,0.30
2018-09-27T08:01:24.896Z,0.30
2018-09-27T08:03:54.334Z,1.10
2018-09-27T08:06:24.094Z,0.50
2018-09-27T08:08:53.752Z,0.30
2018-09-27T08:11:23.207Z,0.53
2018-09-27T08:13:52.635Z,0.30
2018-09-27T08:16:22.022Z,0.60
2018-09-27T08:18:51.824Z,0.30
2018-09-27T08:21:21.536Z,0.43
2018-09-27T08:23:50.984Z,0.50
2018-09-27T08:26:20.391Z,0.70
2018-09-27T08:28:49.836Z,0.50
2018-09-27T08:31:19.809Z,0.33
2018-09-27T08:33:49.463Z,1.17
2018-09-27T08:36:19.283Z,0.60
2018-09-27T08:38:49.391Z,0.63
2018-09-27T08:41:18.992Z,0.60
2018-09-27T08:43:48.833Z,0.50
2018-09-27T08:46:18.472Z,0.80
2018-09-27T08:48:48.248Z,0.30
2018-09-27T08:51:17.828Z,0.50
2018-09-27T08:53:47.604Z,0.40
2018-09-27T08:56:17.259Z,0.40
2018-09-27T08:58:46.689Z,0.83
2018-09-27T09:01:16.136Z,0.60
2018-09-27T09:03:46.092Z,0.50
2018-09-27T09:06:15.913Z,0.47
2018-09-27T09:08:45.884Z,0.30
2018-09-27T09:11:15.568Z,0.60
2018-09-27T09:13:45.029Z,0.40
2018-09-27T09:16:14.821Z,0.67
2018-09-27T09:18:47.689Z,0.50
2018-09-27T09:21:17.296Z,0.40
2018-09-27T09:23:48.454Z,0.40
2018-09-27T09:26:18.647Z,0.30
2018-09-27T09:28:48.716Z,0.40
2018-09-27T09:31:18.823Z,0.60
2018-09-27T09:33:48.808Z,0.50
2018-09-27T09:36:18.961Z,0.80
2018-09-27T09:38:48.964Z,0.50
2018-09-27T09:41:18.566Z,0.73
2018-09-27T09:43:48.406Z,0.95
2018-09-27T09:46:18.474Z,0.47
2018-09-27T09:48:48.459Z,0.67
2018-09-27T09:51:18.094Z,1.23
2018-09-27T09:53:47.492Z,0.60
2018-09-27T09:56:17.258Z,0.67
2018-09-27T09:58:47.268Z,0.40
2018-09-27T10:01:16.924Z,0.50
2018-09-27T10:03:46.760Z,0.70
2018-09-27T10:06:16.730Z,0.40
2018-09-27T10:08:46.888Z,0.50
2018-09-27T10:11:16.488Z,0.40
2018-09-27T10:13:46.257Z,0.50
2018-09-27T10:16:16.237Z,0.40
2018-09-27T10:18:46.250Z,2.23
2018-09-27T10:21:15.871Z,0.70
2018-09-27T10:23:45.319Z,0.70
2018-09-27T10:26:15.113Z,0.60
2018-09-27T10:28:44.758Z,0.40
2018-09-27T10:31:14.239Z,0.50
2018-09-27T10:33:43.687Z,0.40
2018-09-27T10:36:13.096Z,0.50
2018-09-27T10:38:42.838Z,0.50
2018-09-27T10:41:12.487Z,0.70
2018-09-27T10:43:41.926Z,0.43
2018-09-27T10:46:11.375Z,0.90
2018-09-27T10:48:41.168Z,0.30
2018-09-27T10:51:11.132Z,0.33
2018-09-27T10:53:40.797Z,0.37
2018-09-27T10:56:10.618Z,0.53
2018-09-27T10:58:40.745Z,0.70
2018-09-27T11:01:10.463Z,0.70
2018-09-27T11:03:39.910Z,0.60
2018-09-27T11:06:09.953Z,0.47
2018-09-27T11:08:39.652Z,0.73
2018-09-27T11:11:09.663Z,0.50
2018-09-27T11:13:39.331Z,0.70
2018-09-27T11:16:09.283Z,0.60
2018-09-27T11:18:39.381Z,0.50
2018-09-27T11:21:10.117Z,0.43
2018-09-27T11:23:39.785Z,0.70
2018-09-27T11:26:09.862Z,1.07
2018-09-27T11:28:45.036Z,4.53
2018-09-27T11:31:20.482Z,6.63
2018-09-27T11:33:50.550Z,1.57
2018-09-27T11:36:21.157Z,0.60
2018-09-27T11:38:51.123Z,0.80
2018-09-27T11:41:20.841Z,0.90
2018-09-27T11:43:50.331Z,1.47
2018-09-27T11:46:20.349Z,0.60
2018-09-27T11:48:49.899Z,14.50
2018-09-27T11:51:19.893Z,2.47
2018-09-27T11:53:50.064Z,0.60
2018-09-27T11:56:20.421Z,3.67
2018-09-27T11:58:50.304Z,0.87
2018-09-27T12:01:19.772Z,3.90
2018-09-27T12:03:49.215Z,2.10
2018-09-27T12:06:19.054Z,2.27
2018-09-27T12:08:49.058Z,4.70
2018-09-27T12:11:19.118Z,1.80
2018-09-27T12:13:49.140Z,0.90
2018-09-27T12:16:19.222Z,11.13
2018-09-27T12:18:49.202Z,13.27
2018-09-27T12:21:19.252Z,17.27
2018-09-27T12:23:49.239Z,3.23
2018-09-27T12:26:19.244Z,7.90
2018-09-27T12:28:48.897Z,17.57
2018-09-27T12:31:18.964Z,19.00
2018-09-27T12:33:49.077Z,29.47
2018-09-27T12:36:18.827Z,23.27
2018-09-27T12:38:48.685Z,33.10
2018-09-27T12:41:18.302Z,1.10
2018-09-27T12:43:48.263Z,2.60
2018-09-27T12:46:18.608Z,12.57
2018-09-27T12:48:48.837Z,15.70
2018-09-27T12:51:19.080Z,7.90
2018-09-27T12:53:48.925Z,19.93
2018-09-27T12:56:19.849Z,38.10
2018-09-27T12:58:49.484Z,20.27
2018-09-27T13:01:19.277Z,41.23
2018-09-27T13:03:48.928Z,10.23
2018-09-27T13:06:18.838Z,10.30
2018-09-27T13:08:48.927Z,1.20
2018-09-27T13:11:18.514Z,33.30
2018-09-27T13:13:47.957Z,16.10
2018-09-27T13:16:17.424Z,7.23
2018-09-27T13:18:47.174Z,1.00
2018-09-27T13:21:17.184Z,8.90
2018-09-27T13:23:47.165Z,12.70
2018-09-27T13:26:16.851Z,25.03
2018-09-27T13:28:46.628Z,23.67
2018-09-27T13:31:16.428Z,4.03
2018-09-27T13:33:46.028Z,7.63
2018-09-27T13:36:15.830Z,11.63
2018-09-27T13:38:45.516Z,15.90
2018-09-27T13:41:15.321Z,4.10
2018-09-27T13:43:45.354Z,2.93
2018-09-27T13:46:15.114Z,10.80
2018-09-27T13:48:44.837Z,4.33
2018-09-27T13:51:14.510Z,25.00
2018-09-27T13:53:44.013Z,5.57
2018-09-27T13:56:15.448Z,7.97
2018-09-27T13:58:45.066Z,5.17
2018-09-27T14:01:14.556Z,12.00
2018-09-27T14:03:44.322Z,14.80
2018-09-27T14:06:14.014Z,14.90
2018-09-27T14:08:43.498Z,10.30
2018-09-27T14:11:13.004Z,1.27
2018-09-27T14:13:42.370Z,1.23
2018-09-27T14:16:11.816Z,3.63
2018-09-27T14:18:41.603Z,1.00
2018-09-27T14:21:11.268Z,4.50
2018-09-27T14:23:40.689Z,0.40
2018-09-27T14:26:10.495Z,10.20
2018-09-27T14:28:40.283Z,0.50
2018-09-27T14:31:10.126Z,1.37
2018-09-27T14:33:39.784Z,0.50
2018-09-27T14:36:09.623Z,0.50
2018-09-27T14:38:39.271Z,0.50
2018-09-27T14:41:08.812Z,0.50
2018-09-27T14:43:38.580Z,0.70
2018-09-27T14:46:08.329Z,1.80
2018-09-27T14:48:38.667Z,0.70
2018-09-27T14:51:08.389Z,0.40
2018-09-27T14:53:38.068Z,1.40
2018-09-27T14:56:07.598Z,5.40
2018-09-27T14:58:37.676Z,0.50
2018-09-27T15:01:08.349Z,0.90
2018-09-27T15:03:38.508Z,0.80
2018-09-27T15:06:09.197Z,0.70
2018-09-27T15:08:39.634Z,0.50
2018-09-27T15:11:09.578Z,0.50
2018-09-27T15:13:39.388Z,0.50
2018-09-27T15:16:08.902Z,0.50
2018-09-27T15:18:38.457Z,0.70
2018-09-27T15:21:07.955Z,0.50
2018-09-27T15:23:37.584Z,0.60
2018-09-27T15:26:08.357Z,0.60
2018-09-27T15:28:38.001Z,0.90
2018-09-27T15:31:10.096Z,0.47
2018-09-27T15:33:40.530Z,0.50
2018-09-27T15:36:11.142Z,0.50
2018-09-27T15:38:42.002Z,0.50
2018-09-27T15:41:11.795Z,0.37
2018-09-27T15:43:41.980Z,1.17
2018-09-27T15:46:12.479Z,0.47
2018-09-27T15:48:43.287Z,0.47
2018-09-27T15:51:12.813Z,0.63
2018-09-27T15:53:42.261Z,0.70
2018-09-27T15:56:12.182Z,0.60
2018-09-27T15:58:42.427Z,0.60
2018-09-27T16:01:12.230Z,0.40
2018-09-27T16:03:41.809Z,0.40
2018-09-27T16:06:11.684Z,0.70
2018-09-27T16:08:42.142Z,0.60
2018-09-27T16:11:11.885Z,0.83
2018-09-27T16:13:41.456Z,0.60
2018-09-27T16:16:11.634Z,0.50
2018-09-27T16:18:41.357Z,0.40
2018-09-27T16:21:11.319Z,0.80
2018-09-27T16:23:41.141Z,0.60
2018-09-27T16:26:11.743Z,0.40
2018-09-27T16:28:41.718Z,0.60
2018-09-27T16:31:12.461Z,0.40
2018-09-27T16:33:42.592Z,0.40
2018-09-27T16:36:13.296Z,0.50
2018-09-27T16:38:43.354Z,0.70
2018-09-27T16:41:13.284Z,0.70
2018-09-27T16:43:43.143Z,0.60
2018-09-27T16:46:12.947Z,0.43
2018-09-27T16:48:42.649Z,0.50
2018-09-27T16:51:12.507Z,0.60
2018-09-27T16:53:42.873Z,0.60
2018-09-27T16:56:12.831Z,0.30
2018-09-27T16:58:42.515Z,0.50
2018-09-27T17:01:11.939Z,0.40
2018-09-27T17:03:41.366Z,0.90
2018-09-27T17:06:11.132Z,1.37
2018-09-27T17:08:40.791Z,0.73
2018-09-27T17:11:10.659Z,0.50
2018-09-27T17:13:40.467Z,0.83
2018-09-27T17:16:10.214Z,0.40
2018-09-27T17:18:39.895Z,0.53
2018-09-27T17:21:09.332Z,0.63
2018-09-27T17:23:39.291Z,0.57
2018-09-27T17:26:09.197Z,0.57
2018-09-27T17:28:39.254Z,0.67
2018-09-27T17:31:09.158Z,0.43
2018-09-27T17:33:39.077Z,0.80
2018-09-27T17:36:08.794Z,0.70
2018-09-27T17:38:38.562Z,0.50
2018-09-27T17:41:08.823Z,0.77
2018-09-27T17:43:38.861Z,0.50
2018-09-27T17:46:08.506Z,0.63
2018-09-27T17:48:37.953Z,0.43
2018-09-27T17:51:07.413Z,0.50
2018-09-27T17:53:37.203Z,0.30
2018-09-27T17:56:07.983Z,0.40
2018-09-27T17:58:37.748Z,0.30
2018-09-27T18:01:07.454Z,0.43
2018-09-27T18:03:36.905Z,0.43
2018-09-27T18:06:06.459Z,0.43
2018-09-27T18:08:35.895Z,0.40
2018-09-27T18:11:05.413Z,0.40
2018-09-27T18:13:35.262Z,0.30
2018-09-27T18:16:05.338Z,0.40
2018-09-27T18:18:34.791Z,0.27
2018-09-27T18:21:04.314Z,0.27
2018-09-27T18:23:33.974Z,0.30
2018-09-27T18:26:03.766Z,0.50
2018-09-27T18:28:33.818Z,0.30
2018-09-27T18:31:03.462Z,0.40
2018-09-27T18:33:32.844Z,0.50
2018-09-27T18:36:02.365Z,0.50
2018-09-27T18:38:31.767Z,0.40
2018-09-27T18:41:01.564Z,0.30
2018-09-27T18:43:31.204Z,0.50
2018-09-27T18:46:03.535Z,1.13
2018-09-27T18:48:33.537Z,0.43
2018-09-27T18:51:03.904Z,0.40
2018-09-27T18:53:33.730Z,0.53
2018-09-27T18:56:03.222Z,0.57
2018-09-27T18:58:32.656Z,0.47
2018-09-27T19:01:02.441Z,0.30
2018-09-27T19:03:32.121Z,0.40
2018-09-27T19:06:01.568Z,0.50
2018-09-27T19:08:31.336Z,0.40
2018-09-27T19:11:01.439Z,0.30
2018-09-27T19:13:31.039Z,0.73
2018-09-27T19:16:00.629Z,0.43
2018-09-27T19:18:30.426Z,0.40
2018-09-27T19:21:00.124Z,0.30
2018-09-27T19:23:29.654Z,0.60
2018-09-27T19:25:59.101Z,0.50
2018-09-27T19:28:28.911Z,0.80
2018-09-27T19:30:58.605Z,0.30
2018-09-27T19:33:28.643Z,0.27
2018-09-27T19:35:58.725Z,0.50
2018-09-27T19:38:28.439Z,0.70
2018-09-27T19:40:57.810Z,0.60
2018-09-27T19:43:27.258Z,0.50
2018-09-27T19:45:56.710Z,0.30
2018-09-27T19:48:26.566Z,0.40
2018-09-27T19:50:56.195Z,0.30
2018-09-27T19:53:25.674Z,0.30
2018-09-27T19:55:55.543Z,0.33
2018-09-27T19:58:25.302Z,0.80
2018-09-27T20:00:55.070Z,0.40
2018-09-27T20:03:25.052Z,0.30
2018-09-27T20:05:55.010Z,1.23
2018-09-27T20:08:24.747Z,0.47
2018-09-27T20:10:54.510Z,0.70
2018-09-27T20:13:24.496Z,0.30
2018-09-27T20:15:54.541Z,0.30
2018-09-27T20:18:24.253Z,0.30
2018-09-27T20:20:53.716Z,0.37
2018-09-27T20:23:23.500Z,0.30
2018-09-27T20:25:53.518Z,0.43
2018-09-27T20:28:23.164Z,0.30
2018-09-27T20:30:52.594Z,0.50
2018-09-27T20:33:21.987Z,0.30
2018-09-27T20:35:51.436Z,0.40
2018-09-27T20:38:20.870Z,0.50
2018-09-27T20:40:50.303Z,0.30
2018-09-27T20:43:19.711Z,0.30
2018-09-27T20:45:49.521Z,0.33
2018-09-27T20:48:19.796Z,0.50
2018-09-27T20:50:49.622Z,0.53
2018-09-27T20:53:19.263Z,0.30
2018-09-27T20:55:48.720Z,0.30
2018-09-27T20:58:18.306Z,0.50
2018-09-27T21:00:47.688Z,0.20
2018-09-27T21:03:17.556Z,0.37
2018-09-27T21:05:47.591Z,0.60
2018-09-27T21:08:17.536Z,0.40
2018-09-27T21:10:47.726Z,0.40
2018-09-27T21:13:17.387Z,0.33
2018-09-27T21:15:47.172Z,0.63
2018-09-27T21:18:16.797Z,0.30
2018-09-27T21:20:46.186Z,0.77
2018-09-27T21:23:15.598Z,0.30
2018-09-27T21:25:44.982Z,0.47
2018-09-27T21:28:14.391Z,0.30
2018-09-27T21:30:43.759Z,0.30
2018-09-27T21:33:13.499Z,0.50
2018-09-27T21:35:43.635Z,0.30
2018-09-27T21:38:13.673Z,1.27
2018-09-27T21:40:43.358Z,0.30
2018-09-27T21:43:12.833Z,0.40
2018-09-27T21:45:42.574Z,0.40
2018-09-27T21:48:12.499Z,0.30
2018-09-27T21:50:42.181Z,0.40
2018-09-27T21:53:11.556Z,0.37
2018-09-27T21:55:41.064Z,0.30
2018-09-27T21:58:10.461Z,0.20
2018-09-27T22:00:40.272Z,0.53
2018-09-27T22:03:09.912Z,0.30
2018-09-27T22:05:39.740Z,0.30
2018-09-27T22:08:09.399Z,0.60
2018-09-27T22:10:38.884Z,0.30
2018-09-27T22:13:08.357Z,0.20
2018-09-27T22:15:37.869Z,0.40
2018-09-27T22:18:07.588Z,0.40
2018-09-27T22:20:37.327Z,0.57
2018-09-27T22:23:06.733Z,0.40
2018-09-27T22:25:36.504Z,0.30
2018-09-27T22:28:06.557Z,0.50
2018-09-27T22:30:36.156Z,0.40
2018-09-27T22:33:05.890Z,0.80
2018-09-27T22:35:35.854Z,0.40
2018-09-27T22:38:05.488Z,0.40
2018-09-27T22:40:34.882Z,0.20
2018-09-27T22:43:04.313Z,0.50
2018-09-27T22:45:33.712Z,0.37
2018-09-27T22:48:03.228Z,0.40
2018-09-27T22:50:32.618Z,0.20
2018-09-27T22:53:02.446Z,0.40
2018-09-27T22:55:32.446Z,0.40
2018-09-27T22:58:02.083Z,0.30
2018-09-27T23:00:32.480Z,0.30
2018-09-27T23:03:01.926Z,0.30
2018-09-27T23:05:31.731Z,0.30
2018-09-27T23:08:01.363Z,0.30
2018-09-27T23:10:32.671Z,0.30
2018-09-27T23:13:02.055Z,0.37
2018-09-27T23:15:31.825Z,0.30
2018-09-27T23:18:01.414Z,0.20
2018-09-27T23:20:30.849Z,0.40
2018-09-27T23:23:00.251Z,0.30
2018-09-27T23:25:29.673Z,0.53
2018-09-27T23:27:59.391Z,0.50
2018-09-27T23:30:29.363Z,0.30
2018-09-27T23:32:59.342Z,0.40
2018-09-27T23:35:28.980Z,0.33
2018-09-27T23:37:58.449Z,0.30
2018-09-27T23:40:28.194Z,0.50
2018-09-27T23:42:58.246Z,0.30
2018-09-27T23:45:27.843Z,0.30
2018-09-27T23:47:57.250Z,0.30
2018-09-27T23:50:26.653Z,0.40
2018-09-27T23:52:56.414Z,0.30
2018-09-27T23:55:26.046Z,0.70
2018-09-27T23:57:55.454Z,0.30
